createdAt,value
2022-09-24T00:01:57.070Z,4.30
2022-09-24T00:04:27.574Z,4.27
2022-09-24T00:06:57.150Z,3.97
2022-09-24T00:09:25.938Z,4.87
2022-09-24T00:11:55.050Z,4.70
2022-09-24T00:14:23.557Z,4.97
2022-09-24T00:16:51.738Z,4.83
2022-09-24T00:19:19.834Z,4.47
2022-09-24T00:21:48.414Z,4.50
2022-09-24T00:24:33.060Z,3.93
2022-09-24T00:27:03.037Z,3.90
2022-09-24T00:29:32.986Z,3.83
2022-09-24T00:32:01.395Z,4.00
2022-09-24T00:34:29.965Z,4.53
2022-09-24T00:36:59.138Z,3.87
2022-09-24T00:39:28.809Z,3.43
2022-09-24T00:41:57.095Z,3.30
2022-09-24T00:44:54.690Z,3.67
2022-09-24T00:47:39.089Z,3.67
2022-09-24T00:50:16.928Z,3.37
2022-09-24T00:52:49.731Z,3.57
2022-09-24T00:55:21.232Z,3.23
2022-09-24T00:57:52.368Z,3.43
2022-09-24T01:00:22.133Z,3.97
2022-09-24T01:02:55.689Z,3.83
2022-09-24T01:05:24.007Z,4.03
2022-09-24T01:07:52.306Z,3.70
2022-09-24T01:10:42.132Z,3.60
2022-09-24T01:13:22.501Z,3.40
2022-09-24T01:15:58.856Z,3.70
2022-09-24T01:18:34.974Z,3.97
2022-09-24T01:21:25.430Z,3.60
2022-09-24T01:24:29.536Z,3.47
2022-09-24T01:27:10.250Z,3.27
2022-09-24T01:29:47.345Z,3.53
2022-09-24T01:32:20.711Z,3.00
2022-09-24T01:34:51.580Z,3.20
2022-09-24T01:37:23.424Z,3.20
2022-09-24T01:39:54.118Z,3.00
2022-09-24T01:42:25.186Z,3.47
2022-09-24T01:44:57.881Z,2.90
2022-09-24T01:47:34.983Z,2.90
2022-09-24T01:50:05.918Z,2.57
2022-09-24T01:52:42.429Z,4.30
2022-09-24T01:55:14.402Z,3.23
2022-09-24T01:57:46.357Z,3.00
2022-09-24T02:00:18.912Z,3.97
2022-09-24T02:02:50.486Z,3.33
2022-09-24T02:05:24.193Z,3.90
2022-09-24T02:07:57.590Z,3.03
2022-09-24T02:10:25.941Z,3.53
2022-09-24T02:13:00.358Z,3.40
2022-09-24T02:15:33.128Z,3.10
2022-09-24T02:18:05.994Z,3.57
2022-09-24T02:20:37.327Z,3.50
2022-09-24T02:23:07.777Z,3.50
2022-09-24T02:25:41.947Z,3.57
2022-09-24T02:28:10.298Z,3.63
2022-09-24T02:30:44.232Z,3.60
2022-09-24T02:33:27.897Z,4.10
2022-09-24T02:35:56.426Z,4.03
2022-09-24T02:38:24.824Z,3.90
2022-09-24T02:40:54.973Z,3.50
2022-09-24T02:43:23.454Z,3.37
2022-09-24T02:45:53.061Z,3.43
2022-09-24T02:48:21.338Z,3.17
2022-09-24T02:50:49.862Z,2.97
2022-09-24T02:53:18.064Z,3.00
2022-09-24T02:55:46.209Z,3.30
2022-09-24T02:58:14.394Z,3.23
2022-09-24T03:00:42.512Z,3.00
2022-09-24T03:03:12.147Z,3.00
2022-09-24T03:05:40.483Z,3.10
2022-09-24T03:08:08.629Z,3.70
2022-09-24T03:10:36.738Z,2.87
2022-09-24T03:13:05.073Z,3.10
2022-09-24T03:15:33.258Z,3.00
2022-09-24T03:18:01.514Z,2.97
2022-09-24T03:20:31.334Z,3.10
2022-09-24T03:22:59.600Z,3.37
2022-09-24T03:25:27.796Z,3.50
2022-09-24T03:27:56.070Z,3.27
2022-09-24T03:30:41.919Z,3.03
2022-09-24T03:33:10.360Z,3.00
2022-09-24T03:35:39.949Z,3.27
2022-09-24T03:38:08.202Z,2.63
2022-09-24T03:40:36.746Z,3.13
2022-09-24T03:43:04.850Z,3.20
2022-09-24T03:45:33.274Z,2.80
2022-09-24T03:48:01.485Z,2.90
2022-09-24T03:50:29.652Z,3.13
2022-09-24T03:52:59.254Z,3.00
2022-09-24T03:55:27.517Z,3.30
2022-09-24T03:57:55.750Z,3.67
2022-09-24T04:00:24.937Z,3.27
2022-09-24T04:02:53.174Z,3.20
2022-09-24T04:05:21.347Z,3.00
2022-09-24T04:07:49.581Z,3.40
2022-09-24T04:10:19.290Z,3.80
2022-09-24T04:12:47.438Z,3.60
2022-09-24T04:15:18.427Z,3.97
2022-09-24T04:17:51.703Z,3.57
2022-09-24T04:20:22.567Z,3.37
2022-09-24T04:22:51.298Z,3.17
2022-09-24T04:25:21.866Z,2.90
2022-09-24T04:27:54.957Z,3.00
2022-09-24T04:30:24.017Z,3.20
2022-09-24T04:32:52.677Z,3.33
2022-09-24T04:35:22.664Z,3.03
2022-09-24T04:37:51.190Z,3.00
2022-09-24T04:40:20.778Z,2.83
2022-09-24T04:42:49.585Z,2.97
2022-09-24T04:45:20.407Z,2.80
2022-09-24T04:47:52.820Z,3.03
2022-09-24T04:50:22.297Z,2.73
2022-09-24T04:52:50.472Z,2.97
2022-09-24T04:55:21.027Z,2.90
2022-09-24T04:57:51.115Z,3.40
2022-09-24T05:00:22.115Z,3.20
2022-09-24T05:02:57.767Z,2.70
2022-09-24T05:05:26.779Z,2.63
2022-09-24T05:07:56.820Z,2.87
2022-09-24T05:10:27.578Z,2.60
2022-09-24T05:12:56.119Z,2.90
2022-09-24T05:15:24.204Z,2.60
2022-09-24T05:17:52.481Z,2.63
2022-09-24T05:20:20.762Z,2.60
2022-09-24T05:22:50.481Z,3.37
2022-09-24T05:25:20.215Z,2.60
2022-09-24T05:27:50.541Z,2.80
2022-09-24T05:30:20.082Z,3.00
2022-09-24T05:32:49.967Z,2.73
2022-09-24T05:35:18.919Z,2.60
2022-09-24T05:37:49.140Z,2.53
2022-09-24T05:40:35.004Z,2.47
2022-09-24T05:43:05.886Z,2.43
2022-09-24T05:45:34.386Z,2.40
2022-09-24T05:48:03.085Z,2.53
2022-09-24T05:50:35.099Z,2.57
2022-09-24T05:53:03.783Z,2.77
2022-09-24T05:55:32.820Z,2.57
2022-09-24T05:58:06.900Z,2.90
2022-09-24T06:00:36.112Z,2.80
2022-09-24T06:03:07.958Z,2.43
2022-09-24T06:05:36.655Z,2.40
2022-09-24T06:08:05.147Z,2.30
2022-09-24T06:10:33.421Z,2.47
2022-09-24T06:13:01.660Z,2.23
2022-09-24T06:15:31.604Z,2.23
2022-09-24T06:17:59.796Z,2.60
2022-09-24T06:20:28.046Z,2.93
2022-09-24T06:22:57.494Z,2.53
2022-09-24T06:25:26.335Z,2.30
2022-09-24T06:28:00.664Z,2.60
2022-09-24T06:30:32.658Z,2.70
2022-09-24T06:33:05.138Z,2.20
2022-09-24T06:35:35.126Z,2.80
2022-09-24T06:38:03.494Z,2.20
2022-09-24T06:40:36.511Z,2.20
2022-09-24T06:43:06.895Z,2.40
2022-09-24T06:45:36.506Z,2.10
2022-09-24T06:48:06.711Z,2.03
2022-09-24T06:50:36.764Z,2.37
2022-09-24T06:53:07.015Z,2.07
2022-09-24T06:55:36.067Z,2.00
2022-09-24T06:58:07.242Z,2.07
2022-09-24T07:00:37.588Z,2.00
2022-09-24T07:03:06.504Z,2.10
2022-09-24T07:05:39.547Z,2.00
2022-09-24T07:08:11.167Z,2.87
2022-09-24T07:10:42.690Z,2.00
2022-09-24T07:13:10.877Z,2.00
2022-09-24T07:15:40.699Z,1.80
2022-09-24T07:18:08.952Z,2.20
2022-09-24T07:20:37.706Z,2.07
2022-09-24T07:23:06.486Z,2.10
2022-09-24T07:25:35.800Z,2.17
2022-09-24T07:28:05.417Z,2.03
2022-09-24T07:30:34.263Z,2.30
2022-09-24T07:33:04.094Z,1.90
2022-09-24T07:35:32.510Z,1.73
2022-09-24T07:38:02.158Z,1.57
2022-09-24T07:40:31.565Z,1.77
2022-09-24T07:43:00.210Z,1.73
2022-09-24T07:45:30.165Z,1.60
2022-09-24T07:47:59.978Z,1.97
2022-09-24T07:50:31.260Z,1.60
2022-09-24T07:53:00.343Z,1.60
2022-09-24T07:55:28.596Z,1.60
2022-09-24T07:57:57.648Z,2.20
2022-09-24T08:00:26.933Z,1.63
2022-09-24T08:02:56.575Z,1.87
2022-09-24T08:05:25.484Z,1.57
2022-09-24T08:07:56.589Z,1.40
2022-09-24T08:10:25.709Z,1.90
2022-09-24T08:12:54.368Z,1.60
2022-09-24T08:15:23.388Z,1.43
2022-09-24T08:17:52.087Z,1.20
2022-09-24T08:20:21.615Z,1.17
2022-09-24T08:22:49.771Z,1.40
2022-09-24T08:25:19.474Z,1.20
2022-09-24T08:27:47.567Z,1.43
2022-09-24T08:30:16.351Z,1.27
2022-09-24T08:32:48.362Z,1.47
2022-09-24T08:35:16.698Z,1.20
2022-09-24T08:37:45.382Z,1.10
2022-09-24T08:40:20.765Z,2.00
2022-09-24T08:42:56.924Z,0.93
2022-09-24T08:45:39.015Z,1.13
2022-09-24T08:48:14.926Z,1.23
2022-09-24T08:50:50.506Z,1.23
2022-09-24T08:53:24.839Z,1.00
2022-09-24T08:55:56.958Z,1.10
2022-09-24T08:58:35.017Z,1.50
2022-09-24T09:01:14.237Z,1.57
2022-09-24T09:03:50.258Z,1.50
2022-09-24T09:06:45.821Z,2.00
2022-09-24T09:09:18.297Z,1.57
2022-09-24T09:11:51.153Z,1.23
2022-09-24T09:14:23.858Z,1.50
2022-09-24T09:16:55.986Z,1.30
2022-09-24T09:19:28.541Z,1.37
2022-09-24T09:22:02.049Z,1.20
2022-09-24T09:24:41.233Z,1.20
2022-09-24T09:27:15.924Z,1.50
2022-09-24T09:29:46.699Z,1.37
2022-09-24T09:32:32.074Z,0.97
2022-09-24T09:35:07.887Z,1.47
2022-09-24T09:37:44.086Z,1.20
2022-09-24T09:40:31.709Z,1.57
2022-09-24T09:43:04.097Z,1.30
2022-09-24T09:45:37.636Z,1.20
2022-09-24T09:48:06.148Z,1.43
2022-09-24T09:50:40.819Z,1.27
2022-09-24T09:53:20.983Z,1.40
2022-09-24T09:55:55.588Z,1.57
2022-09-24T09:58:27.431Z,1.27
2022-09-24T10:01:05.923Z,1.50
2022-09-24T10:03:40.831Z,1.67
2022-09-24T10:06:09.236Z,1.50
2022-09-24T10:08:37.321Z,1.50
2022-09-24T10:11:07.000Z,1.60
2022-09-24T10:13:36.779Z,1.70
2022-09-24T10:16:09.955Z,1.60
2022-09-24T10:18:43.522Z,1.63
2022-09-24T10:21:14.621Z,1.70
2022-09-24T10:23:44.871Z,1.40
2022-09-24T10:26:13.054Z,1.27
2022-09-24T10:29:06.187Z,1.93
2022-09-24T10:31:38.797Z,3.07
2022-09-24T10:34:21.428Z,2.27
2022-09-24T10:36:53.867Z,3.00
2022-09-24T10:39:23.510Z,2.00
2022-09-24T10:41:53.295Z,1.50
2022-09-24T10:44:23.403Z,1.53
2022-09-24T10:47:19.178Z,0.93
2022-09-24T10:50:05.078Z,1.20
2022-09-24T10:52:45.532Z,1.20
2022-09-24T10:55:25.015Z,1.50
2022-09-24T10:58:03.727Z,1.60
2022-09-24T11:00:40.601Z,1.20
2022-09-24T11:03:35.815Z,1.57
2022-09-24T11:06:13.478Z,1.23
2022-09-24T11:09:01.726Z,1.60
2022-09-24T11:11:40.543Z,1.10
2022-09-24T11:14:26.921Z,1.50
2022-09-24T11:17:23.582Z,1.10
2022-09-24T11:20:11.045Z,1.30
2022-09-24T11:23:13.662Z,1.07
2022-09-24T11:25:50.189Z,1.00
2022-09-24T11:28:32.129Z,1.33
2022-09-24T11:31:10.154Z,1.10
2022-09-24T11:34:00.059Z,1.17
2022-09-24T11:36:42.526Z,1.30
2022-09-24T11:39:24.649Z,1.07
2022-09-24T11:42:02.537Z,1.27
2022-09-24T11:45:05.888Z,1.30
2022-09-24T11:47:55.426Z,1.43
2022-09-24T11:50:38.247Z,1.40
2022-09-24T11:53:13.566Z,1.50
2022-09-24T11:55:49.495Z,1.13
2022-09-24T11:58:22.122Z,1.37
2022-09-24T12:00:56.178Z,1.20
2022-09-24T12:03:29.011Z,1.70
2022-09-24T12:06:03.012Z,1.20
2022-09-24T12:08:36.298Z,1.27
2022-09-24T12:11:09.786Z,1.20
2022-09-24T12:13:42.509Z,1.20
2022-09-24T12:16:14.825Z,1.67
2022-09-24T12:18:51.532Z,1.20
2022-09-24T12:21:26.726Z,1.40
2022-09-24T12:24:02.962Z,1.37
2022-09-24T12:26:32.333Z,1.50
2022-09-24T12:29:25.157Z,1.43
2022-09-24T12:32:17.590Z,1.23
2022-09-24T12:34:52.859Z,1.30
2022-09-24T12:37:26.003Z,1.77
2022-09-24T12:40:00.454Z,1.20
2022-09-24T12:42:35.606Z,1.70
2022-09-24T12:45:05.559Z,1.20
2022-09-24T12:47:39.101Z,1.20
2022-09-24T12:50:09.568Z,1.70
2022-09-24T12:52:41.833Z,1.50
2022-09-24T12:55:21.805Z,1.93
2022-09-24T12:57:55.521Z,2.83
2022-09-24T13:00:41.379Z,1.30
2022-09-24T13:03:34.056Z,1.60
2022-09-24T13:06:03.146Z,1.53
2022-09-24T13:08:40.292Z,1.30
2022-09-24T13:11:27.698Z,1.60
2022-09-24T13:14:19.286Z,1.50
2022-09-24T13:16:50.582Z,2.00
2022-09-24T13:19:28.343Z,1.83
2022-09-24T13:22:00.089Z,1.80
2022-09-24T13:24:31.964Z,2.60
2022-09-24T13:27:24.018Z,1.53
2022-09-24T13:30:04.816Z,1.93
2022-09-24T13:32:37.923Z,1.60
2022-09-24T13:35:11.302Z,1.40
2022-09-24T13:37:44.486Z,1.53
2022-09-24T13:40:21.401Z,1.90
2022-09-24T13:42:56.946Z,1.50
2022-09-24T13:45:26.493Z,1.70
2022-09-24T13:47:58.461Z,1.37
2022-09-24T13:50:29.342Z,1.77
2022-09-24T13:53:02.373Z,1.60
2022-09-24T13:55:34.582Z,1.70
2022-09-24T13:58:02.805Z,1.87
2022-09-24T14:00:32.737Z,1.37
2022-09-24T14:03:04.185Z,1.40
2022-09-24T14:05:36.697Z,2.30
2022-09-24T14:08:08.067Z,1.67
2022-09-24T14:10:38.119Z,1.73
2022-09-24T14:13:19.342Z,1.70
2022-09-24T14:15:58.538Z,1.30
2022-09-24T14:18:28.701Z,1.67
2022-09-24T14:21:00.793Z,1.60
2022-09-24T14:23:33.139Z,1.63
2022-09-24T14:26:03.251Z,1.40
2022-09-24T14:28:33.038Z,1.57
2022-09-24T14:31:03.043Z,1.70
2022-09-24T14:33:34.191Z,1.30
2022-09-24T14:36:04.957Z,1.50
2022-09-24T14:38:36.024Z,1.90
2022-09-24T14:41:09.083Z,1.40
2022-09-24T14:43:45.223Z,1.57
2022-09-24T14:46:20.384Z,1.40
2022-09-24T14:48:49.719Z,1.33
2022-09-24T14:51:29.574Z,2.27
2022-09-24T14:54:02.509Z,1.20
2022-09-24T14:56:35.070Z,1.40
2022-09-24T14:59:03.358Z,1.50
2022-09-24T15:01:33.331Z,1.40
2022-09-24T15:04:03.973Z,1.40
2022-09-24T15:06:33.527Z,1.50
2022-09-24T15:09:04.499Z,1.60
2022-09-24T15:11:35.740Z,1.50
2022-09-24T15:14:15.098Z,1.43
2022-09-24T15:16:47.210Z,1.43
2022-09-24T15:19:20.873Z,3.97
2022-09-24T15:21:50.357Z,1.33
2022-09-24T15:24:19.789Z,1.60
2022-09-24T15:27:00.070Z,1.20
2022-09-24T15:29:28.689Z,1.53
2022-09-24T15:31:57.991Z,1.40
2022-09-24T15:34:27.570Z,1.40
2022-09-24T15:36:59.120Z,1.70
2022-09-24T15:39:28.758Z,1.73
2022-09-24T15:41:58.366Z,1.63
2022-09-24T15:44:33.601Z,1.43
2022-09-24T15:47:02.914Z,1.57
2022-09-24T15:49:31.357Z,1.70
2022-09-24T15:52:04.076Z,1.40
2022-09-24T15:54:32.554Z,1.73
2022-09-24T15:57:02.806Z,1.50
2022-09-24T15:59:31.149Z,1.50
2022-09-24T16:02:02.663Z,1.40
2022-09-24T16:04:31.045Z,1.70
2022-09-24T16:06:59.595Z,1.50
2022-09-24T16:09:28.129Z,1.40
2022-09-24T16:11:57.634Z,1.80
2022-09-24T16:14:27.196Z,1.70
2022-09-24T16:16:55.880Z,2.00
2022-09-24T16:19:24.118Z,2.00
2022-09-24T16:21:53.544Z,1.77
2022-09-24T16:24:22.134Z,1.70
2022-09-24T16:26:50.277Z,2.10
2022-09-24T16:29:19.041Z,2.00
2022-09-24T16:31:49.583Z,2.33
2022-09-24T16:34:17.906Z,1.60
2022-09-24T16:36:46.178Z,2.10
2022-09-24T16:39:15.766Z,1.90
2022-09-24T16:41:44.429Z,1.50
2022-09-24T16:44:15.254Z,2.50
2022-09-24T16:46:44.544Z,1.60
2022-09-24T16:49:14.230Z,1.47
2022-09-24T16:51:42.613Z,1.40
2022-09-24T16:54:12.433Z,1.50
2022-09-24T16:56:40.515Z,1.50
2022-09-24T16:59:08.813Z,1.43
2022-09-24T17:01:39.378Z,1.30
2022-09-24T17:04:08.083Z,1.50
2022-09-24T17:06:38.136Z,1.23
2022-09-24T17:09:24.068Z,1.30
2022-09-24T17:11:52.576Z,1.17
2022-09-24T17:14:20.957Z,3.07
2022-09-24T17:16:49.080Z,1.63
2022-09-24T17:19:17.606Z,1.40
2022-09-24T17:21:50.157Z,1.40
2022-09-24T17:24:21.433Z,1.10
2022-09-24T17:26:50.086Z,1.20
2022-09-24T17:29:20.876Z,1.20
2022-09-24T17:31:49.360Z,1.20
2022-09-24T17:34:18.017Z,1.40
2022-09-24T17:36:47.701Z,1.20
2022-09-24T17:39:16.126Z,1.43
2022-09-24T17:41:44.384Z,1.40
2022-09-24T17:44:13.488Z,1.40
2022-09-24T17:46:41.816Z,1.33
2022-09-24T17:49:11.181Z,2.00
2022-09-24T17:51:39.926Z,1.40
2022-09-24T17:54:12.056Z,1.13
2022-09-24T17:56:40.915Z,1.50
2022-09-24T17:59:11.402Z,1.40
2022-09-24T18:01:41.016Z,1.40
2022-09-24T18:04:13.075Z,2.90
2022-09-24T18:06:42.966Z,1.10
2022-09-24T18:09:14.329Z,1.20
2022-09-24T18:11:44.347Z,1.30
2022-09-24T18:14:14.719Z,1.27
2022-09-24T18:16:43.251Z,1.33
2022-09-24T18:19:12.956Z,1.00
2022-09-24T18:21:41.205Z,1.43
2022-09-24T18:24:12.650Z,1.30
2022-09-24T18:26:41.407Z,1.20
2022-09-24T18:29:13.883Z,1.30
2022-09-24T18:31:42.752Z,1.80
2022-09-24T18:34:13.211Z,1.30
2022-09-24T18:36:42.933Z,1.20
2022-09-24T18:39:17.683Z,1.33
2022-09-24T18:41:48.708Z,1.30
2022-09-24T18:44:16.902Z,1.10
2022-09-24T18:46:45.583Z,1.33
2022-09-24T18:49:14.004Z,1.20
2022-09-24T18:51:42.362Z,1.33
2022-09-24T18:54:15.651Z,1.20
2022-09-24T18:56:43.990Z,1.40
2022-09-24T18:59:14.573Z,1.10
2022-09-24T19:01:43.954Z,1.40
2022-09-24T19:04:14.525Z,1.30
2022-09-24T19:06:44.562Z,1.60
2022-09-24T19:09:17.382Z,1.50
2022-09-24T19:11:46.586Z,1.40
2022-09-24T19:14:18.488Z,1.20
2022-09-24T19:16:47.360Z,1.50
2022-09-24T19:19:16.197Z,1.80
2022-09-24T19:21:44.488Z,1.30
2022-09-24T19:24:14.982Z,1.43
2022-09-24T19:26:43.440Z,1.80
2022-09-24T19:29:11.786Z,2.53
2022-09-24T19:31:42.928Z,1.90
2022-09-24T19:34:14.231Z,1.50
2022-09-24T19:36:44.811Z,1.70
2022-09-24T19:39:17.458Z,1.70
2022-09-24T19:41:46.039Z,2.10
2022-09-24T19:44:16.742Z,1.60
2022-09-24T19:46:45.395Z,1.97
2022-09-24T19:49:14.214Z,1.60
2022-09-24T19:51:42.529Z,1.50
2022-09-24T19:54:11.953Z,2.20
2022-09-24T19:56:42.209Z,1.87
2022-09-24T19:59:11.431Z,2.00
2022-09-24T20:01:39.712Z,1.60
2022-09-24T20:04:09.039Z,1.47
2022-09-24T20:06:39.113Z,1.57
2022-09-24T20:09:08.393Z,1.57
2022-09-24T20:11:37.167Z,1.80
2022-09-24T20:14:09.099Z,1.70
2022-09-24T20:16:38.120Z,1.73
2022-09-24T20:19:06.384Z,1.60
2022-09-24T20:21:36.138Z,1.80
2022-09-24T20:24:05.911Z,1.63
2022-09-24T20:26:51.881Z,1.90
2022-09-24T20:29:23.076Z,1.70
2022-09-24T20:31:53.893Z,1.87
2022-09-24T20:34:23.985Z,1.90
2022-09-24T20:36:52.249Z,1.77
2022-09-24T20:39:20.630Z,1.83
2022-09-24T20:41:49.707Z,1.70
2022-09-24T20:44:18.026Z,1.90
2022-09-24T20:46:47.538Z,1.83
2022-09-24T20:49:22.880Z,2.10
2022-09-24T20:51:56.590Z,2.00
2022-09-24T20:54:26.474Z,2.00
2022-09-24T20:56:54.774Z,1.80
2022-09-24T20:59:22.907Z,1.80
2022-09-24T21:01:53.407Z,1.70
2022-09-24T21:04:22.318Z,1.63
2022-09-24T21:06:51.191Z,1.80
2022-09-24T21:09:19.879Z,1.87
2022-09-24T21:11:50.612Z,2.13
2022-09-24T21:14:19.345Z,1.77
2022-09-24T21:16:47.981Z,1.97
2022-09-24T21:19:17.606Z,2.10
2022-09-24T21:21:45.841Z,1.63
2022-09-24T21:24:15.935Z,1.80
2022-09-24T21:26:45.653Z,2.00
2022-09-24T21:29:16.688Z,1.80
2022-09-24T21:31:46.340Z,2.23
2022-09-24T21:34:16.278Z,1.80
2022-09-24T21:36:46.744Z,2.10
2022-09-24T21:39:17.164Z,2.20
2022-09-24T21:41:50.368Z,1.97
2022-09-24T21:44:19.269Z,1.97
2022-09-24T21:46:50.680Z,2.00
2022-09-24T21:49:19.649Z,2.20
2022-09-24T21:51:49.563Z,2.27
2022-09-24T21:54:19.467Z,2.40
2022-09-24T21:56:48.161Z,2.10
2022-09-24T21:59:34.477Z,1.97
2022-09-24T22:02:03.355Z,2.27
2022-09-24T22:04:33.388Z,2.33
2022-09-24T22:07:03.930Z,1.93
2022-09-24T22:09:33.170Z,2.30
2022-09-24T22:12:05.450Z,2.10
2022-09-24T22:14:35.058Z,2.30
2022-09-24T22:17:04.057Z,2.20
2022-09-24T22:19:32.384Z,2.40
2022-09-24T22:22:03.161Z,2.40
2022-09-24T22:24:31.356Z,2.73
2022-09-24T22:26:59.473Z,2.80
2022-09-24T22:29:28.086Z,2.43
2022-09-24T22:31:56.284Z,2.57
2022-09-24T22:34:41.766Z,2.70
2022-09-24T22:37:11.546Z,2.40
2022-09-24T22:39:39.850Z,2.60
2022-09-24T22:42:08.061Z,2.50
2022-09-24T22:44:36.240Z,2.40
2022-09-24T22:47:04.364Z,2.50
2022-09-24T22:49:33.140Z,2.63
2022-09-24T22:52:01.698Z,2.90
2022-09-24T22:54:31.560Z,2.30
2022-09-24T22:56:59.922Z,2.70
2022-09-24T22:59:28.143Z,2.67
2022-09-24T23:01:56.234Z,2.30
2022-09-24T23:04:24.687Z,2.67
2022-09-24T23:06:52.969Z,2.50
2022-09-24T23:09:21.782Z,2.50
2022-09-24T23:11:51.994Z,2.23
2022-09-24T23:14:20.265Z,2.20
2022-09-24T23:16:48.503Z,2.53
2022-09-24T23:19:18.369Z,2.10
2022-09-24T23:21:47.306Z,2.17
2022-09-24T23:24:17.769Z,2.20
2022-09-24T23:26:46.349Z,2.10
2022-09-24T23:29:16.590Z,2.27
2022-09-24T23:31:44.790Z,2.33
2022-09-24T23:34:14.416Z,2.90
2022-09-24T23:36:45.248Z,2.73
2022-09-24T23:39:14.094Z,2.50
2022-09-24T23:41:42.629Z,2.60
2022-09-24T23:44:11.274Z,2.33
2022-09-24T23:46:40.861Z,2.63
2022-09-24T23:49:09.181Z,2.10
2022-09-24T23:51:37.821Z,2.53
2022-09-24T23:54:06.860Z,2.33
2022-09-24T23:56:35.796Z,2.63
2022-09-24T23:59:04.304Z,2.33
